createdAt,value
2023-05-19T00:01:55.221Z,9.70
2023-05-19T00:04:26.868Z,9.70
2023-05-19T00:07:02.031Z,9.70
2023-05-19T00:09:33.621Z,9.70
2023-05-19T00:12:04.612Z,9.70
2023-05-19T00:14:36.215Z,9.60
2023-05-19T00:17:07.992Z,9.60
2023-05-19T00:19:39.551Z,9.50
2023-05-19T00:22:11.313Z,9.50
2023-05-19T00:24:41.850Z,9.40
2023-05-19T00:27:12.274Z,9.30
2023-05-19T00:29:42.946Z,9.30
2023-05-19T00:32:13.489Z,9.30
2023-05-19T00:34:44.113Z,9.20
2023-05-19T00:37:15.871Z,9.20
2023-05-19T00:39:46.779Z,9.10
2023-05-19T00:42:17.058Z,9.00
2023-05-19T00:44:47.639Z,9.00
2023-05-19T00:47:17.951Z,9.00
2023-05-19T00:49:48.863Z,9.00
2023-05-19T00:52:20.467Z,9.00
2023-05-19T00:54:52.744Z,9.00
2023-05-19T00:57:23.576Z,8.90
2023-05-19T00:59:54.631Z,8.90
2023-05-19T01:02:25.098Z,8.90
2023-05-19T01:04:57.160Z,8.80
2023-05-19T01:07:29.747Z,8.90
2023-05-19T01:10:00.717Z,8.90
2023-05-19T01:12:31.790Z,8.90
2023-05-19T01:15:03.318Z,8.80
2023-05-19T01:17:45.676Z,8.80
2023-05-19T01:20:22.907Z,8.80
2023-05-19T01:23:24.374Z,8.80
2023-05-19T01:26:31.365Z,8.90
2023-05-19T01:29:25.468Z,8.80
2023-05-19T01:32:02.325Z,8.80
2023-05-19T01:34:34.622Z,8.70
2023-05-19T01:37:08.781Z,8.70
2023-05-19T01:39:41.564Z,8.70
2023-05-19T01:42:12.309Z,8.80
2023-05-19T01:44:43.190Z,8.80
2023-05-19T01:47:15.747Z,8.90
2023-05-19T01:49:46.170Z,8.90
2023-05-19T01:52:16.939Z,8.90
2023-05-19T01:54:47.348Z,8.90
2023-05-19T01:57:36.876Z,8.80
2023-05-19T02:00:19.299Z,8.80
2023-05-19T02:03:13.959Z,8.90
2023-05-19T02:05:54.749Z,8.90
2023-05-19T02:08:42.884Z,8.90
2023-05-19T02:11:21.815Z,8.90
2023-05-19T02:13:57.217Z,9.00
2023-05-19T02:16:30.832Z,9.00
2023-05-19T02:19:03.178Z,9.00
2023-05-19T02:21:33.511Z,9.00
2023-05-19T02:24:04.539Z,9.00
2023-05-19T02:26:35.068Z,9.00
2023-05-19T02:29:08.206Z,9.00
2023-05-19T02:31:38.699Z,9.00
2023-05-19T02:34:11.865Z,9.00
2023-05-19T02:36:44.361Z,9.00
2023-05-19T02:39:15.232Z,9.00
2023-05-19T02:41:45.571Z,8.90
2023-05-19T02:44:16.547Z,8.90
2023-05-19T02:46:47.138Z,8.90
2023-05-19T02:49:19.711Z,8.90
2023-05-19T02:51:50.429Z,8.90
2023-05-19T02:54:21.152Z,9.00
2023-05-19T02:56:51.615Z,8.90
2023-05-19T02:59:25.397Z,8.90
2023-05-19T03:02:00.844Z,9.00
2023-05-19T03:04:42.220Z,8.90
2023-05-19T03:07:13.547Z,8.90
2023-05-19T03:09:44.600Z,8.90
2023-05-19T03:12:14.992Z,8.90
2023-05-19T03:14:45.634Z,9.00
2023-05-19T03:17:16.220Z,8.90
2023-05-19T03:19:48.281Z,9.00
2023-05-19T03:22:21.105Z,9.00
2023-05-19T03:24:53.486Z,9.00
2023-05-19T03:27:24.231Z,9.10
2023-05-19T03:29:55.073Z,9.10
2023-05-19T03:32:26.361Z,9.10
2023-05-19T03:34:58.668Z,9.00
2023-05-19T03:37:29.750Z,9.00
2023-05-19T03:40:01.158Z,9.00
2023-05-19T03:42:31.514Z,9.00
2023-05-19T03:45:02.541Z,9.00
2023-05-19T03:47:33.048Z,9.10
2023-05-19T03:50:27.533Z,9.10
2023-05-19T03:53:03.936Z,9.20
2023-05-19T03:55:42.010Z,9.30
2023-05-19T03:58:14.658Z,9.30
2023-05-19T04:00:45.470Z,9.40
2023-05-19T04:03:16.209Z,9.50
2023-05-19T04:05:48.744Z,9.60
2023-05-19T04:08:19.367Z,9.60
2023-05-19T04:10:50.106Z,9.50
2023-05-19T04:13:20.610Z,9.50
2023-05-19T04:15:51.649Z,9.60
2023-05-19T04:18:25.530Z,9.70
2023-05-19T04:20:59.828Z,9.70
2023-05-19T04:23:30.277Z,9.80
2023-05-19T04:26:02.042Z,9.70
2023-05-19T04:28:33.975Z,9.70
2023-05-19T04:31:11.222Z,9.90
2023-05-19T04:33:42.550Z,9.90
2023-05-19T04:36:17.559Z,9.90
2023-05-19T04:38:48.998Z,9.90
2023-05-19T04:41:21.162Z,10.10
2023-05-19T04:43:51.287Z,10.20
2023-05-19T04:46:24.582Z,10.40
2023-05-19T04:48:57.476Z,10.50
2023-05-19T04:51:31.428Z,10.80
2023-05-19T04:54:04.095Z,10.90
2023-05-19T04:56:34.909Z,10.90
2023-05-19T04:59:05.714Z,10.80
2023-05-19T05:01:40.713Z,10.90
2023-05-19T05:04:16.461Z,11.00
2023-05-19T05:06:48.959Z,10.70
2023-05-19T05:09:20.273Z,10.90
2023-05-19T05:11:52.617Z,10.90
2023-05-19T05:14:24.453Z,10.80
2023-05-19T05:16:57.684Z,11.10
2023-05-19T05:19:29.595Z,11.20
2023-05-19T05:22:03.413Z,11.30
2023-05-19T05:24:34.617Z,11.50
2023-05-19T05:27:10.480Z,11.50
2023-05-19T05:29:41.183Z,11.60
2023-05-19T05:32:13.339Z,11.60
2023-05-19T05:34:44.168Z,11.60
2023-05-19T05:37:16.593Z,11.60
2023-05-19T05:39:47.241Z,11.60
2023-05-19T05:42:17.951Z,11.80
2023-05-19T05:44:50.115Z,11.70
2023-05-19T05:47:22.549Z,12.10
2023-05-19T05:49:53.747Z,12.20
2023-05-19T05:52:31.096Z,12.40
2023-05-19T05:55:04.104Z,12.60
2023-05-19T05:57:36.667Z,12.80
2023-05-19T06:00:14.904Z,12.70
2023-05-19T06:02:55.369Z,13.20
2023-05-19T06:05:26.047Z,13.20
2023-05-19T06:07:59.452Z,13.40
2023-05-19T06:10:32.047Z,13.30
2023-05-19T06:13:04.027Z,13.40
2023-05-19T06:15:34.657Z,13.30
2023-05-19T06:18:10.739Z,13.40
2023-05-19T06:20:42.989Z,13.30
2023-05-19T06:23:15.192Z,13.50
2023-05-19T06:25:45.622Z,13.60
2023-05-19T06:28:17.074Z,13.20
2023-05-19T06:30:47.965Z,12.70
2023-05-19T06:33:28.977Z,12.80
2023-05-19T06:36:01.908Z,12.70
2023-05-19T06:38:34.917Z,12.60
2023-05-19T06:41:05.403Z,12.40
2023-05-19T06:43:36.773Z,12.50
2023-05-19T06:46:07.386Z,12.30
2023-05-19T06:48:38.309Z,12.30
2023-05-19T06:51:10.335Z,12.40
2023-05-19T06:53:44.728Z,12.20
2023-05-19T06:56:16.113Z,12.20
2023-05-19T06:58:46.817Z,12.30
2023-05-19T07:01:19.427Z,12.50
2023-05-19T07:03:56.504Z,12.50
2023-05-19T07:06:27.053Z,12.80
2023-05-19T07:08:59.510Z,13.00
2023-05-19T07:11:30.551Z,12.90
2023-05-19T07:14:04.033Z,12.70
2023-05-19T07:16:35.647Z,12.80
2023-05-19T07:19:06.318Z,12.80
2023-05-19T07:21:37.897Z,12.80
2023-05-19T07:24:10.157Z,12.90
2023-05-19T07:26:41.076Z,13.00
2023-05-19T07:29:11.677Z,13.10
2023-05-19T07:31:42.123Z,13.40
2023-05-19T07:34:12.776Z,13.60
2023-05-19T07:36:43.332Z,13.50
2023-05-19T07:39:17.856Z,13.50
2023-05-19T07:41:52.866Z,13.50
2023-05-19T07:44:23.707Z,13.30
2023-05-19T07:46:54.154Z,13.10
2023-05-19T07:49:26.007Z,13.10
2023-05-19T07:51:56.731Z,13.10
2023-05-19T07:54:28.870Z,13.20
2023-05-19T07:56:59.345Z,13.00
2023-05-19T07:59:30.053Z,13.10
2023-05-19T08:02:01.106Z,13.20
2023-05-19T08:04:32.014Z,13.40
2023-05-19T08:07:02.664Z,13.40
2023-05-19T08:09:34.764Z,12.90
2023-05-19T08:12:06.218Z,12.90
2023-05-19T08:14:37.591Z,12.90
2023-05-19T08:17:07.987Z,12.70
2023-05-19T08:19:38.741Z,12.90
2023-05-19T08:22:09.156Z,13.10
2023-05-19T08:24:43.287Z,13.00
2023-05-19T08:27:13.812Z,13.10
2023-05-19T08:29:44.565Z,13.30
2023-05-19T08:32:15.168Z,13.40
2023-05-19T08:34:46.032Z,13.40
2023-05-19T08:37:16.580Z,13.60
2023-05-19T08:39:48.725Z,13.70
2023-05-19T08:42:19.225Z,13.90
2023-05-19T08:44:49.920Z,14.10
2023-05-19T08:47:20.796Z,14.00
2023-05-19T08:49:57.461Z,13.50
2023-05-19T08:52:36.894Z,13.30
2023-05-19T08:55:18.472Z,13.30
2023-05-19T08:57:49.610Z,13.40
2023-05-19T09:00:21.248Z,13.60
2023-05-19T09:03:01.071Z,13.90
2023-05-19T09:05:42.588Z,14.30
2023-05-19T09:08:13.664Z,14.70
2023-05-19T09:10:45.748Z,14.80
2023-05-19T09:13:15.996Z,14.90
2023-05-19T09:15:46.913Z,14.70
2023-05-19T09:18:17.159Z,15.00
2023-05-19T09:20:48.371Z,14.50
2023-05-19T09:23:19.476Z,14.40
2023-05-19T09:25:53.227Z,14.20
2023-05-19T09:28:28.102Z,14.00
2023-05-19T09:31:03.271Z,13.50
2023-05-19T09:33:37.268Z,13.60
2023-05-19T09:36:10.972Z,13.70
2023-05-19T09:38:42.014Z,13.20
2023-05-19T09:41:17.020Z,13.00
2023-05-19T09:43:57.073Z,12.70
2023-05-19T09:46:28.730Z,13.40
2023-05-19T09:48:59.781Z,13.50
2023-05-19T09:51:32.157Z,13.20
2023-05-19T09:54:02.480Z,13.50
2023-05-19T09:56:36.435Z,13.50
2023-05-19T09:59:08.349Z,13.90
2023-05-19T10:01:41.765Z,14.10
2023-05-19T10:04:12.799Z,14.20
2023-05-19T10:06:44.989Z,13.80
2023-05-19T10:09:16.265Z,14.00
2023-05-19T10:11:49.077Z,14.70
2023-05-19T10:14:21.441Z,15.10
2023-05-19T10:16:53.841Z,15.50
2023-05-19T10:19:27.193Z,15.20
2023-05-19T10:21:58.775Z,15.20
2023-05-19T10:24:29.023Z,15.10
2023-05-19T10:27:09.194Z,15.20
2023-05-19T10:29:45.845Z,14.80
2023-05-19T10:32:21.164Z,14.70
2023-05-19T10:35:45.237Z,15.30
2023-05-19T10:38:29.358Z,15.90
2023-05-19T10:41:08.886Z,15.50
2023-05-19T10:43:54.626Z,15.40
2023-05-19T10:46:28.538Z,15.40
2023-05-19T10:48:59.480Z,15.40
2023-05-19T10:51:33.852Z,15.70
2023-05-19T10:54:10.982Z,15.40
2023-05-19T10:56:45.985Z,15.70
2023-05-19T10:59:39.555Z,15.90
2023-05-19T11:02:10.846Z,15.90
2023-05-19T11:04:51.091Z,16.10
2023-05-19T11:07:24.780Z,15.50
2023-05-19T11:09:55.894Z,15.50
2023-05-19T11:12:26.589Z,14.90
2023-05-19T11:15:00.660Z,15.10
2023-05-19T11:17:32.234Z,14.90
2023-05-19T11:20:04.741Z,14.80
2023-05-19T11:22:37.242Z,14.40
2023-05-19T11:25:09.942Z,14.40
2023-05-19T11:27:40.969Z,14.10
2023-05-19T11:30:15.238Z,14.20
2023-05-19T11:32:48.749Z,14.00
2023-05-19T11:35:21.553Z,14.20
2023-05-19T11:37:52.537Z,14.00
2023-05-19T11:40:24.510Z,14.00
2023-05-19T11:42:55.111Z,14.20
2023-05-19T11:45:33.109Z,14.50
2023-05-19T11:48:04.443Z,14.30
2023-05-19T11:50:38.234Z,14.20
2023-05-19T11:53:09.627Z,14.10
2023-05-19T11:55:46.037Z,14.10
2023-05-19T11:58:17.475Z,13.90
2023-05-19T12:00:50.029Z,14.40
2023-05-19T12:03:28.881Z,14.60
2023-05-19T12:05:59.754Z,14.10
2023-05-19T12:08:31.595Z,14.30
2023-05-19T12:11:02.366Z,14.00
2023-05-19T12:13:32.743Z,13.70
2023-05-19T12:16:06.375Z,13.40
2023-05-19T12:18:38.618Z,13.30
2023-05-19T12:21:09.506Z,13.40
2023-05-19T12:23:41.691Z,13.40
2023-05-19T12:26:12.506Z,13.90
2023-05-19T12:28:42.999Z,14.10
2023-05-19T12:31:15.366Z,13.70
2023-05-19T12:33:46.744Z,14.00
2023-05-19T12:36:18.103Z,14.20
2023-05-19T12:38:54.621Z,14.00
2023-05-19T12:41:27.804Z,14.00
2023-05-19T12:43:58.194Z,14.10
2023-05-19T12:46:34.136Z,14.10
2023-05-19T12:49:04.549Z,14.10
2023-05-19T12:51:35.421Z,14.00
2023-05-19T12:54:06.041Z,14.00
2023-05-19T12:56:37.132Z,14.00
2023-05-19T12:59:07.531Z,14.00
2023-05-19T13:01:39.899Z,13.90
2023-05-19T13:04:10.772Z,14.00
2023-05-19T13:06:43.856Z,13.80
2023-05-19T13:09:17.000Z,13.80
2023-05-19T13:11:51.279Z,13.60
2023-05-19T13:14:21.692Z,13.60
2023-05-19T13:16:53.945Z,13.40
2023-05-19T13:19:25.775Z,13.30
2023-05-19T13:21:57.546Z,13.40
2023-05-19T13:24:28.023Z,13.40
2023-05-19T13:26:58.997Z,13.60
2023-05-19T13:29:29.533Z,13.90
2023-05-19T13:32:02.006Z,14.00
2023-05-19T13:34:32.549Z,14.10
2023-05-19T13:37:03.788Z,14.00
2023-05-19T13:39:34.520Z,13.80
2023-05-19T13:42:06.511Z,13.70
2023-05-19T13:44:37.085Z,13.70
2023-05-19T13:47:09.233Z,13.80
2023-05-19T13:49:39.987Z,13.90
2023-05-19T13:52:11.707Z,13.90
2023-05-19T13:54:43.530Z,13.70
2023-05-19T13:57:15.078Z,13.70
2023-05-19T14:00:01.013Z,13.90
2023-05-19T14:02:56.418Z,13.90
2023-05-19T14:05:28.551Z,13.80
2023-05-19T14:08:00.673Z,14.10
2023-05-19T14:10:31.568Z,14.40
2023-05-19T14:13:29.901Z,14.40
2023-05-19T14:15:56.312Z,14.40
2023-05-19T14:18:28.712Z,14.60
2023-05-19T14:20:59.106Z,14.50
2023-05-19T14:23:30.438Z,14.70
2023-05-19T14:26:01.087Z,14.90
2023-05-19T14:28:32.004Z,14.90
2023-05-19T14:31:02.455Z,14.90
2023-05-19T14:33:35.649Z,15.10
2023-05-19T14:36:06.879Z,15.20
2023-05-19T14:38:38.153Z,15.10
2023-05-19T14:41:08.632Z,15.30
2023-05-19T14:43:41.545Z,15.30
2023-05-19T14:46:12.092Z,15.10
2023-05-19T14:48:44.182Z,15.10
2023-05-19T14:51:14.464Z,15.00
2023-05-19T14:53:45.149Z,15.00
2023-05-19T14:56:15.594Z,15.00
2023-05-19T14:58:46.802Z,15.00
2023-05-19T15:01:17.339Z,15.00
2023-05-19T15:03:49.552Z,15.00
2023-05-19T15:06:20.068Z,15.20
2023-05-19T15:08:51.102Z,15.10
2023-05-19T15:11:22.524Z,14.90
2023-05-19T15:13:53.346Z,14.60
2023-05-19T15:16:23.674Z,14.60
2023-05-19T15:18:55.834Z,14.50
2023-05-19T15:21:26.125Z,14.50
2023-05-19T15:23:56.929Z,14.50
2023-05-19T15:26:30.122Z,14.00
2023-05-19T15:29:00.748Z,14.00
2023-05-19T15:31:31.078Z,14.10
2023-05-19T15:34:03.153Z,14.20
2023-05-19T15:36:36.071Z,14.20
2023-05-19T15:39:06.787Z,14.20
2023-05-19T15:41:37.336Z,14.40
2023-05-19T15:44:08.443Z,14.70
2023-05-19T15:46:39.101Z,14.70
2023-05-19T15:49:31.691Z,14.70
2023-05-19T15:52:02.252Z,14.80
2023-05-19T15:54:32.955Z,14.60
2023-05-19T15:57:03.143Z,14.30
2023-05-19T15:59:34.036Z,14.40
2023-05-19T16:02:04.679Z,14.60
2023-05-19T16:04:37.884Z,14.50
2023-05-19T16:07:08.251Z,14.50
2023-05-19T16:09:39.080Z,14.50
2023-05-19T16:12:09.766Z,14.40
2023-05-19T16:14:40.696Z,14.40
2023-05-19T16:17:13.893Z,14.40
2023-05-19T16:19:46.540Z,14.40
2023-05-19T16:22:18.150Z,14.40
2023-05-19T16:24:48.795Z,14.50
2023-05-19T16:27:19.423Z,14.60
2023-05-19T16:29:50.483Z,14.50
2023-05-19T16:32:21.119Z,14.40
2023-05-19T16:34:53.473Z,14.30
2023-05-19T16:37:23.907Z,14.30
2023-05-19T16:39:54.697Z,14.20
2023-05-19T16:42:25.464Z,14.10
2023-05-19T16:44:56.152Z,14.00
2023-05-19T16:47:26.650Z,13.90
2023-05-19T16:49:58.857Z,14.00
2023-05-19T16:52:29.359Z,13.80
2023-05-19T16:55:00.191Z,13.80
2023-05-19T16:57:30.640Z,13.80
2023-05-19T17:00:01.392Z,13.80
2023-05-19T17:02:31.732Z,13.80
2023-05-19T17:05:04.286Z,13.80
2023-05-19T17:07:34.626Z,13.80
2023-05-19T17:10:05.958Z,13.70
2023-05-19T17:12:37.050Z,13.70
2023-05-19T17:15:09.389Z,13.60
2023-05-19T17:17:39.785Z,13.60
2023-05-19T17:20:13.717Z,13.60
2023-05-19T17:22:44.153Z,13.50
2023-05-19T17:25:17.420Z,13.50
2023-05-19T17:27:52.459Z,13.50
2023-05-19T17:30:23.408Z,13.40
2023-05-19T17:32:53.898Z,13.30
2023-05-19T17:35:27.533Z,13.30
2023-05-19T17:37:59.400Z,13.30
2023-05-19T17:40:30.660Z,13.30
2023-05-19T17:43:01.308Z,13.40
2023-05-19T17:45:32.196Z,13.30
2023-05-19T17:48:02.699Z,13.30
2023-05-19T17:50:34.966Z,13.30
2023-05-19T17:53:06.173Z,13.20
2023-05-19T17:55:38.146Z,13.20
2023-05-19T17:58:09.338Z,13.20
2023-05-19T18:00:40.994Z,13.20
2023-05-19T18:03:12.358Z,13.10
2023-05-19T18:05:46.534Z,13.10
2023-05-19T18:08:18.783Z,13.10
2023-05-19T18:10:53.471Z,13.00
2023-05-19T18:13:23.804Z,13.00
2023-05-19T18:15:54.594Z,12.90
2023-05-19T18:18:25.451Z,12.90
2023-05-19T18:21:02.394Z,12.80
2023-05-19T18:23:32.742Z,12.80
2023-05-19T18:26:04.293Z,12.70
2023-05-19T18:28:36.423Z,12.70
2023-05-19T18:31:09.457Z,12.60
2023-05-19T18:33:41.207Z,12.60
2023-05-19T18:36:13.666Z,12.60
2023-05-19T18:38:44.363Z,12.60
2023-05-19T18:41:16.280Z,12.60
2023-05-19T18:43:46.668Z,12.50
2023-05-19T18:46:19.427Z,12.60
2023-05-19T18:48:50.797Z,12.50
2023-05-19T18:51:24.148Z,12.50
2023-05-19T18:53:56.070Z,12.50
2023-05-19T18:56:28.086Z,12.50
2023-05-19T18:59:03.453Z,12.40
2023-05-19T19:01:34.467Z,12.40
2023-05-19T19:04:05.722Z,12.40
2023-05-19T19:06:41.381Z,12.40
2023-05-19T19:09:16.379Z,12.40
2023-05-19T19:11:47.441Z,12.40
2023-05-19T19:14:19.556Z,12.30
2023-05-19T19:16:54.071Z,12.30
2023-05-19T19:19:25.584Z,12.30
2023-05-19T19:21:58.189Z,12.40
2023-05-19T19:24:31.102Z,12.30
2023-05-19T19:27:01.521Z,12.30
2023-05-19T19:29:32.077Z,12.30
2023-05-19T19:32:02.899Z,12.30
2023-05-19T19:34:33.415Z,12.30
2023-05-19T19:37:06.078Z,12.30
2023-05-19T19:39:36.581Z,12.30
2023-05-19T19:42:10.857Z,12.20
2023-05-19T19:44:43.049Z,12.20
2023-05-19T19:47:14.035Z,12.20
2023-05-19T19:49:45.938Z,12.20
2023-05-19T19:52:19.366Z,12.20
2023-05-19T19:54:51.150Z,12.20
2023-05-19T19:57:22.090Z,12.20
2023-05-19T19:59:58.418Z,12.20
2023-05-19T20:02:30.433Z,12.10
2023-05-19T20:05:02.037Z,12.20
2023-05-19T20:07:34.334Z,12.20
2023-05-19T20:10:04.805Z,12.20
2023-05-19T20:12:36.792Z,12.10
2023-05-19T20:15:09.944Z,12.10
2023-05-19T20:17:41.026Z,12.10
2023-05-19T20:20:13.561Z,12.10
2023-05-19T20:22:46.158Z,12.10
2023-05-19T20:25:16.871Z,12.10
2023-05-19T20:27:49.013Z,12.00
2023-05-19T20:30:21.438Z,12.10
2023-05-19T20:32:55.167Z,12.10
2023-05-19T20:35:26.732Z,12.10
2023-05-19T20:37:59.587Z,12.10
2023-05-19T20:40:38.260Z,12.10
2023-05-19T20:43:11.674Z,12.10
2023-05-19T20:45:45.865Z,12.00
2023-05-19T20:48:16.792Z,12.10
2023-05-19T20:50:47.138Z,12.00
2023-05-19T20:53:21.817Z,12.00
2023-05-19T20:55:52.830Z,12.00
2023-05-19T20:58:27.570Z,12.00
2023-05-19T21:00:59.134Z,12.00
2023-05-19T21:03:31.140Z,12.00
2023-05-19T21:06:01.992Z,12.00
2023-05-19T21:08:34.143Z,12.00
2023-05-19T21:11:04.893Z,12.00
2023-05-19T21:13:40.533Z,12.00
2023-05-19T21:16:12.348Z,12.00
2023-05-19T21:18:44.682Z,12.00
2023-05-19T21:21:15.380Z,12.00
2023-05-19T21:23:48.251Z,12.00
2023-05-19T21:26:19.116Z,12.00
2023-05-19T21:28:51.997Z,12.00
2023-05-19T21:31:22.772Z,11.90
2023-05-19T21:33:53.970Z,11.90
2023-05-19T21:36:24.375Z,11.90
2023-05-19T21:38:59.401Z,11.90
2023-05-19T21:41:31.217Z,11.90
2023-05-19T21:44:02.010Z,11.90
2023-05-19T21:46:32.510Z,11.90
2023-05-19T21:49:03.589Z,11.90
2023-05-19T21:51:35.256Z,11.80
2023-05-19T21:54:07.926Z,11.80
2023-05-19T21:56:41.753Z,11.80
2023-05-19T21:59:13.913Z,11.80
2023-05-19T22:01:44.753Z,11.80
2023-05-19T22:04:18.491Z,11.70
2023-05-19T22:06:49.188Z,11.70
2023-05-19T22:09:22.727Z,11.70
2023-05-19T22:11:53.562Z,11.70
2023-05-19T22:14:24.087Z,11.70
2023-05-19T22:16:54.542Z,11.70
2023-05-19T22:19:26.731Z,11.70
2023-05-19T22:22:09.764Z,11.70
2023-05-19T22:24:42.629Z,11.70
2023-05-19T22:27:13.077Z,11.70
2023-05-19T22:29:43.859Z,11.70
2023-05-19T22:32:16.944Z,11.70
2023-05-19T22:34:47.907Z,11.70
2023-05-19T22:37:18.011Z,11.70
2023-05-19T22:39:50.036Z,11.70
2023-05-19T22:42:20.541Z,11.70
2023-05-19T22:44:51.313Z,11.70
2023-05-19T22:47:21.841Z,11.70
2023-05-19T22:49:54.812Z,11.70
2023-05-19T22:52:25.671Z,11.70
2023-05-19T22:54:57.960Z,11.70
2023-05-19T22:57:28.221Z,11.60
2023-05-19T22:59:59.230Z,11.60
2023-05-19T23:02:29.684Z,11.60
2023-05-19T23:05:00.520Z,11.60
2023-05-19T23:07:30.878Z,11.70
2023-05-19T23:10:03.574Z,11.70
2023-05-19T23:12:34.032Z,11.60
2023-05-19T23:15:05.360Z,11.60
2023-05-19T23:17:36.942Z,11.60
2023-05-19T23:20:09.269Z,11.60
2023-05-19T23:22:39.581Z,11.60
2023-05-19T23:25:11.951Z,11.60
2023-05-19T23:27:42.621Z,11.70
2023-05-19T23:30:13.742Z,11.70
2023-05-19T23:32:44.158Z,11.70
2023-05-19T23:35:17.515Z,11.70
2023-05-19T23:37:47.928Z,11.70
2023-05-19T23:40:20.719Z,11.70
2023-05-19T23:42:51.274Z,11.70
2023-05-19T23:45:22.227Z,11.70
2023-05-19T23:47:54.855Z,11.80
2023-05-19T23:50:25.620Z,11.70
2023-05-19T23:52:56.006Z,11.70
2023-05-19T23:55:28.795Z,11.70
2023-05-19T23:57:59.960Z,11.70
